createdAt,value
2023-04-09T00:02:08.613Z,4.76
2023-04-09T00:04:58.529Z,4.71
2023-04-09T00:07:48.578Z,4.51
2023-04-09T00:10:39.745Z,4.57
2023-04-09T00:13:28.250Z,4.55
2023-04-09T00:16:22.648Z,4.53
2023-04-09T00:18:57.740Z,4.40
2023-04-09T00:21:33.737Z,4.29
2023-04-09T00:24:18.416Z,4.20
2023-04-09T00:26:58.263Z,4.17
2023-04-09T00:29:46.529Z,4.12
2023-04-09T00:32:20.802Z,4.12
2023-04-09T00:34:59.921Z,4.11
2023-04-09T00:37:33.782Z,4.00
2023-04-09T00:40:23.483Z,4.09
2023-04-09T00:43:10.547Z,3.90
2023-04-09T00:45:44.241Z,4.04
2023-04-09T00:48:31.042Z,3.93
2023-04-09T00:51:13.639Z,3.86
2023-04-09T00:53:47.410Z,3.90
2023-04-09T00:56:29.628Z,3.64
2023-04-09T00:58:57.080Z,3.83
2023-04-09T01:01:29.369Z,3.82
2023-04-09T01:04:01.609Z,3.75
2023-04-09T01:07:02.448Z,3.77
2023-04-09T01:09:57.796Z,3.77
2023-04-09T01:12:50.257Z,3.76
2023-04-09T01:15:48.934Z,3.71
2023-04-09T01:18:54.480Z,3.71
2023-04-09T01:21:47.974Z,3.68
2023-04-09T01:24:50.565Z,3.69
2023-04-09T01:27:31.495Z,3.47
2023-04-09T01:30:17.094Z,3.60
2023-04-09T01:33:06.464Z,3.41
2023-04-09T01:35:56.943Z,3.57
2023-04-09T01:38:43.186Z,3.59
2023-04-09T01:41:25.300Z,3.56
2023-04-09T01:44:23.449Z,3.54
2023-04-09T01:46:53.557Z,3.73
2023-04-09T01:49:27.811Z,3.72
2023-04-09T01:52:15.164Z,3.56
2023-04-09T01:54:45.014Z,3.56
2023-04-09T01:57:18.630Z,3.33
2023-04-09T02:00:05.595Z,3.60
2023-04-09T02:03:15.571Z,3.56
2023-04-09T02:06:09.698Z,3.68
2023-04-09T02:08:47.283Z,3.59
2023-04-09T02:11:21.207Z,3.64
2023-04-09T02:13:59.086Z,3.58
2023-04-09T02:16:40.011Z,3.45
2023-04-09T02:19:22.798Z,3.53
2023-04-09T02:22:06.461Z,3.45
2023-04-09T02:24:37.781Z,3.38
2023-04-09T02:27:07.778Z,3.41
2023-04-09T02:29:38.660Z,3.35
2023-04-09T02:32:30.034Z,3.51
2023-04-09T02:35:09.611Z,3.54
2023-04-09T02:37:50.358Z,3.55
2023-04-09T02:40:30.589Z,3.57
2023-04-09T02:43:13.251Z,3.49
2023-04-09T02:45:53.268Z,3.64
2023-04-09T02:48:33.176Z,3.66
2023-04-09T02:51:23.571Z,3.56
2023-04-09T02:54:23.372Z,3.65
2023-04-09T02:57:01.298Z,3.67
2023-04-09T02:59:35.632Z,3.66
2023-04-09T03:02:05.828Z,3.62
2023-04-09T03:04:38.525Z,3.65
2023-04-09T03:07:07.811Z,3.59
2023-04-09T03:09:44.471Z,3.70
2023-04-09T03:12:27.074Z,3.75
2023-04-09T03:15:12.459Z,3.77
2023-04-09T03:17:53.375Z,3.81
2023-04-09T03:20:41.829Z,3.38
2023-04-09T03:23:26.735Z,3.64
2023-04-09T03:26:16.550Z,3.65
2023-04-09T03:29:02.165Z,3.31
2023-04-09T03:31:40.279Z,3.73
2023-04-09T03:34:32.084Z,3.75
2023-04-09T03:37:02.848Z,3.66
2023-04-09T03:39:49.161Z,3.55
2023-04-09T03:42:26.816Z,3.41
2023-04-09T03:45:09.917Z,3.33
2023-04-09T03:47:57.470Z,3.47
2023-04-09T03:50:36.176Z,3.36
2023-04-09T03:53:19.109Z,3.57
2023-04-09T03:55:59.251Z,3.57
2023-04-09T03:58:42.170Z,3.47
2023-04-09T04:01:23.952Z,3.67
2023-04-09T04:04:04.691Z,3.66
2023-04-09T04:06:36.272Z,3.55
2023-04-09T04:09:13.829Z,3.41
2023-04-09T04:11:57.904Z,3.75
2023-04-09T04:14:48.342Z,3.76
2023-04-09T04:17:29.781Z,3.69
2023-04-09T04:20:18.183Z,3.77
2023-04-09T04:22:59.793Z,3.71
2023-04-09T04:25:47.672Z,3.75
2023-04-09T04:28:27.529Z,3.66
2023-04-09T04:31:00.934Z,3.68
2023-04-09T04:33:30.146Z,3.90
2023-04-09T04:36:22.713Z,3.88
2023-04-09T04:39:00.385Z,4.02
2023-04-09T04:41:28.131Z,4.08
2023-04-09T04:44:02.952Z,4.05
2023-04-09T04:46:38.946Z,4.17
2023-04-09T04:49:08.752Z,4.21
2023-04-09T04:51:43.815Z,4.15
2023-04-09T04:54:29.839Z,4.17
2023-04-09T04:57:20.595Z,4.30
2023-04-09T05:00:04.923Z,4.41
2023-04-09T05:02:48.103Z,4.35
2023-04-09T05:05:24.410Z,4.41
2023-04-09T05:08:01.189Z,4.58
2023-04-09T05:10:49.602Z,4.41
2023-04-09T05:13:26.236Z,4.74
2023-04-09T05:15:57.792Z,4.82
2023-04-09T05:18:34.965Z,4.73
2023-04-09T05:21:09.187Z,4.85
2023-04-09T05:23:36.759Z,4.95
2023-04-09T05:26:14.908Z,4.89
2023-04-09T05:28:49.820Z,4.98
2023-04-09T05:31:35.814Z,4.92
2023-04-09T05:34:10.631Z,4.82
2023-04-09T05:36:45.383Z,4.77
2023-04-09T05:39:23.973Z,4.98
2023-04-09T05:42:02.988Z,5.05
2023-04-09T05:44:46.256Z,5.17
2023-04-09T05:47:16.651Z,5.29
2023-04-09T05:49:52.861Z,5.37
2023-04-09T05:52:21.846Z,5.43
2023-04-09T05:55:06.484Z,5.50
2023-04-09T05:57:56.185Z,5.58
2023-04-09T06:00:43.513Z,5.61
2023-04-09T06:03:24.272Z,5.73
2023-04-09T06:06:09.023Z,5.78
2023-04-09T06:08:38.587Z,5.93
2023-04-09T06:11:29.267Z,5.77
2023-04-09T06:14:05.077Z,6.14
2023-04-09T06:16:42.189Z,6.21
2023-04-09T06:19:20.485Z,6.26
2023-04-09T06:22:12.669Z,6.37
2023-04-09T06:24:58.072Z,6.34
2023-04-09T06:27:40.293Z,6.52
2023-04-09T06:30:22.724Z,6.51
2023-04-09T06:33:07.432Z,6.59
2023-04-09T06:35:48.104Z,6.68
2023-04-09T06:38:32.261Z,6.74
2023-04-09T06:41:06.242Z,6.89
2023-04-09T06:44:07.958Z,6.81
2023-04-09T06:46:39.298Z,6.96
2023-04-09T06:49:31.372Z,7.07
2023-04-09T06:52:10.461Z,7.16
2023-04-09T06:54:57.208Z,7.21
2023-04-09T06:57:33.317Z,7.20
2023-04-09T07:00:14.431Z,7.27
2023-04-09T07:02:46.788Z,7.30
2023-04-09T07:05:34.403Z,7.29
2023-04-09T07:08:01.688Z,7.26
2023-04-09T07:10:30.050Z,7.33
2023-04-09T07:13:07.216Z,7.11
2023-04-09T07:15:53.815Z,7.27
2023-04-09T07:18:35.842Z,7.48
2023-04-09T07:21:03.433Z,7.50
2023-04-09T07:23:40.720Z,7.45
2023-04-09T07:26:23.570Z,7.55
2023-04-09T07:29:11.233Z,7.59
2023-04-09T07:31:57.312Z,7.60
2023-04-09T07:34:38.850Z,7.53
2023-04-09T07:37:10.678Z,7.51
2023-04-09T07:39:46.985Z,7.28
2023-04-09T07:42:17.720Z,7.33
2023-04-09T07:44:44.638Z,7.31
2023-04-09T07:47:22.119Z,7.31
2023-04-09T07:49:50.170Z,7.30
2023-04-09T07:52:20.459Z,7.31
2023-04-09T07:55:12.934Z,7.37
2023-04-09T07:58:00.841Z,7.23
2023-04-09T08:00:34.851Z,7.19
2023-04-09T08:03:22.623Z,7.31
2023-04-09T08:06:10.360Z,7.48
2023-04-09T08:08:45.044Z,7.58
2023-04-09T08:11:23.732Z,7.54
2023-04-09T08:13:57.848Z,7.30
2023-04-09T08:16:37.480Z,7.47
2023-04-09T08:19:24.684Z,7.32
2023-04-09T08:22:05.202Z,7.13
2023-04-09T08:24:50.292Z,7.01
2023-04-09T08:27:30.525Z,7.12
2023-04-09T08:30:00.207Z,7.29
2023-04-09T08:32:43.860Z,7.21
2023-04-09T08:35:20.397Z,7.20
2023-04-09T08:37:57.072Z,7.17
2023-04-09T08:40:34.541Z,7.03
2023-04-09T08:43:25.111Z,7.13
2023-04-09T08:46:18.243Z,6.79
2023-04-09T08:49:07.782Z,6.89
2023-04-09T08:51:54.294Z,6.94
2023-04-09T08:54:38.019Z,6.87
2023-04-09T08:57:23.652Z,6.95
2023-04-09T09:00:05.758Z,6.98
2023-04-09T09:02:41.528Z,7.11
2023-04-09T09:05:47.215Z,7.33
2023-04-09T09:08:30.339Z,7.31
2023-04-09T09:11:07.605Z,7.51
2023-04-09T09:13:46.112Z,7.56
2023-04-09T09:16:31.097Z,7.71
2023-04-09T09:19:11.860Z,7.99
2023-04-09T09:21:57.710Z,7.85
2023-04-09T09:24:43.484Z,7.81
2023-04-09T09:27:38.059Z,7.80
2023-04-09T09:30:20.781Z,7.93
2023-04-09T09:33:20.953Z,7.87
2023-04-09T09:36:05.209Z,7.66
2023-04-09T09:39:09.519Z,7.82
2023-04-09T09:41:52.165Z,7.88
2023-04-09T09:44:38.770Z,7.96
2023-04-09T09:47:32.980Z,7.99
2023-04-09T09:50:19.426Z,8.13
2023-04-09T09:53:17.309Z,8.16
2023-04-09T09:55:52.352Z,8.30
2023-04-09T09:58:32.917Z,8.49
2023-04-09T10:01:35.659Z,8.20
2023-04-09T10:04:28.957Z,8.36
2023-04-09T10:07:06.857Z,8.57
2023-04-09T10:09:56.263Z,8.45
2023-04-09T10:12:35.017Z,8.32
2023-04-09T10:15:07.459Z,8.48
2023-04-09T10:17:45.539Z,8.32
2023-04-09T10:20:42.291Z,8.36
2023-04-09T10:23:35.348Z,8.35
2023-04-09T10:26:07.167Z,8.31
2023-04-09T10:28:45.742Z,8.59
2023-04-09T10:31:21.890Z,8.74
2023-04-09T10:34:10.927Z,9.05
2023-04-09T10:36:46.174Z,9.45
2023-04-09T10:39:16.953Z,9.74
2023-04-09T10:42:03.396Z,9.93
2023-04-09T10:44:53.672Z,9.70
2023-04-09T10:47:53.195Z,9.88
2023-04-09T10:50:41.646Z,10.11
2023-04-09T10:53:51.109Z,9.75
2023-04-09T10:56:36.765Z,9.77
2023-04-09T10:59:26.198Z,10.01
2023-04-09T11:02:19.097Z,10.17
2023-04-09T11:05:31.054Z,10.43
2023-04-09T11:08:22.609Z,10.94
2023-04-09T11:11:10.828Z,11.10
2023-04-09T11:13:48.423Z,11.16
2023-04-09T11:16:27.857Z,10.91
2023-04-09T11:19:03.993Z,10.94
2023-04-09T11:21:41.574Z,10.58
2023-04-09T11:24:17.778Z,10.20
2023-04-09T11:27:04.364Z,10.24
2023-04-09T11:30:25.524Z,10.48
2023-04-09T11:32:52.610Z,10.94
2023-04-09T11:35:22.738Z,10.40
2023-04-09T11:37:52.528Z,10.77
2023-04-09T11:40:26.851Z,10.85
2023-04-09T11:42:56.242Z,10.98
2023-04-09T11:45:28.359Z,11.33
2023-04-09T11:47:57.762Z,11.53
2023-04-09T11:50:25.509Z,11.41
2023-04-09T11:52:53.125Z,11.42
2023-04-09T11:55:27.852Z,11.09
2023-04-09T11:58:01.422Z,11.43
2023-04-09T12:00:29.253Z,11.13
2023-04-09T12:03:02.720Z,11.43
2023-04-09T12:05:32.824Z,11.36
2023-04-09T12:08:07.693Z,11.29
2023-04-09T12:10:37.129Z,10.96
2023-04-09T12:13:09.501Z,11.18
2023-04-09T12:15:38.695Z,11.26
2023-04-09T12:18:09.281Z,11.38
2023-04-09T12:20:39.892Z,11.44
2023-04-09T12:23:07.928Z,11.64
2023-04-09T12:25:39.507Z,11.52
2023-04-09T12:28:08.196Z,11.70
2023-04-09T12:30:36.311Z,11.58
2023-04-09T12:33:04.335Z,11.66
2023-04-09T12:35:32.190Z,11.74
2023-04-09T12:38:02.384Z,11.88
2023-04-09T12:40:29.399Z,11.74
2023-04-09T12:42:56.765Z,11.57
2023-04-09T12:45:23.892Z,11.53
2023-04-09T12:47:51.397Z,11.35
2023-04-09T12:50:18.472Z,11.17
2023-04-09T12:52:46.148Z,10.94
2023-04-09T12:55:14.928Z,11.03
2023-04-09T12:57:44.514Z,10.93
2023-04-09T13:00:12.337Z,11.02
2023-04-09T13:02:39.800Z,10.78
2023-04-09T13:05:07.681Z,10.29
2023-04-09T13:07:34.700Z,10.31
2023-04-09T13:10:01.743Z,10.20
2023-04-09T13:12:28.768Z,10.07
2023-04-09T13:14:55.971Z,9.74
2023-04-09T13:17:23.346Z,10.03
2023-04-09T13:19:51.917Z,9.07
2023-04-09T13:22:19.602Z,10.02
2023-04-09T13:24:46.654Z,10.03
2023-04-09T13:27:13.806Z,9.79
2023-04-09T13:29:40.861Z,9.67
2023-04-09T13:32:07.940Z,9.72
2023-04-09T13:34:35.742Z,9.69
2023-04-09T13:37:03.833Z,9.63
2023-04-09T13:39:31.514Z,9.73
2023-04-09T13:41:58.662Z,9.71
2023-04-09T13:44:26.929Z,9.57
2023-04-09T13:46:54.036Z,9.62
2023-04-09T13:49:21.318Z,9.76
2023-04-09T13:51:49.235Z,10.27
2023-04-09T13:54:16.479Z,10.56
2023-04-09T13:56:45.183Z,10.98
2023-04-09T13:59:12.584Z,11.07
2023-04-09T14:01:39.663Z,11.15
2023-04-09T14:04:06.862Z,11.29
2023-04-09T14:06:33.934Z,11.44
2023-04-09T14:09:00.989Z,11.51
2023-04-09T14:11:28.011Z,11.38
2023-04-09T14:13:55.809Z,11.33
2023-04-09T14:16:23.934Z,11.42
2023-04-09T14:18:51.352Z,11.36
2023-04-09T14:21:19.049Z,11.27
2023-04-09T14:23:46.308Z,11.24
2023-04-09T14:26:13.482Z,11.15
2023-04-09T14:28:43.062Z,11.50
2023-04-09T14:31:10.101Z,11.68
2023-04-09T14:33:37.069Z,11.09
2023-04-09T14:36:04.408Z,10.90
2023-04-09T14:38:31.516Z,11.25
2023-04-09T14:40:58.475Z,11.52
2023-04-09T14:43:25.844Z,11.63
2023-04-09T14:45:54.608Z,11.51
2023-04-09T14:48:21.658Z,11.68
2023-04-09T14:50:51.497Z,11.97
2023-04-09T15:04:27.957Z,11.99
2023-04-09T15:06:55.637Z,11.83
2023-04-09T15:09:22.633Z,11.89
2023-04-09T15:11:50.353Z,11.89
2023-04-09T15:14:17.396Z,11.80
2023-04-09T15:16:44.478Z,11.75
2023-04-09T15:19:11.803Z,11.64
2023-04-09T15:21:38.797Z,11.68
2023-04-09T15:24:05.816Z,11.70
2023-04-09T15:26:34.969Z,11.68
2023-04-09T15:29:04.394Z,11.72
2023-04-09T15:31:32.326Z,11.80
2023-04-09T15:33:59.630Z,11.68
2023-04-09T15:36:27.271Z,11.74
2023-04-09T15:38:54.932Z,11.71
2023-04-09T15:41:24.196Z,11.59
2023-04-09T15:43:52.080Z,11.42
2023-04-09T15:46:19.181Z,11.22
2023-04-09T15:48:46.406Z,11.31
2023-04-09T15:51:13.917Z,11.11
2023-04-09T15:53:40.922Z,10.93
2023-04-09T15:56:08.919Z,10.56
2023-04-09T15:58:37.267Z,10.69
2023-04-09T16:01:08.570Z,10.76
2023-04-09T16:03:40.036Z,10.51
2023-04-09T16:06:13.529Z,10.60
2023-04-09T16:08:40.699Z,10.52
2023-04-09T16:11:08.471Z,10.49
2023-04-09T16:13:35.581Z,10.47
2023-04-09T16:16:02.648Z,10.32
2023-04-09T16:18:30.122Z,10.07
2023-04-09T16:20:57.781Z,9.77
2023-04-09T16:23:26.605Z,9.52
2023-04-09T16:25:53.998Z,9.46
2023-04-09T16:28:22.468Z,9.40
2023-04-09T16:30:51.065Z,9.44
2023-04-09T16:33:18.158Z,9.28
2023-04-09T16:35:45.298Z,9.37
2023-04-09T16:38:14.023Z,9.23
2023-04-09T16:40:41.164Z,9.33
2023-04-09T16:43:08.165Z,9.35
2023-04-09T16:45:35.946Z,9.19
2023-04-09T16:48:03.133Z,9.34
2023-04-09T16:50:30.128Z,9.05
2023-04-09T16:52:57.289Z,9.27
2023-04-09T16:55:24.291Z,9.21
2023-04-09T16:57:51.615Z,9.12
2023-04-09T17:00:19.267Z,8.82
2023-04-09T17:02:46.476Z,8.89
2023-04-09T17:05:14.211Z,8.93
2023-04-09T17:07:41.526Z,8.91
2023-04-09T17:10:09.151Z,8.81
2023-04-09T17:12:37.150Z,8.66
2023-04-09T17:15:04.491Z,8.64
2023-04-09T17:17:31.949Z,8.50
2023-04-09T17:20:01.616Z,8.40
2023-04-09T17:22:28.925Z,8.60
2023-04-09T17:24:56.118Z,8.55
2023-04-09T17:27:23.148Z,8.56
2023-04-09T17:29:50.269Z,8.52
2023-04-09T17:32:17.458Z,8.50
2023-04-09T17:34:48.808Z,8.39
2023-04-09T17:37:16.079Z,8.36
2023-04-09T17:39:43.174Z,8.03
2023-04-09T17:42:12.151Z,8.09
2023-04-09T17:44:39.509Z,8.09
2023-04-09T17:47:07.725Z,8.00
2023-04-09T17:49:34.941Z,7.96
2023-04-09T17:52:02.018Z,7.82
2023-04-09T17:54:35.560Z,7.80
2023-04-09T17:57:04.347Z,7.77
2023-04-09T17:59:32.485Z,7.83
2023-04-09T18:01:59.760Z,7.76
2023-04-09T18:04:27.410Z,7.68
2023-04-09T18:06:57.719Z,7.58
2023-04-09T18:09:24.871Z,7.62
2023-04-09T18:11:56.568Z,7.59
2023-04-09T18:14:27.110Z,7.56
2023-04-09T18:16:56.568Z,7.51
2023-04-09T18:19:25.531Z,7.49
2023-04-09T18:21:55.244Z,7.50
2023-04-09T18:24:23.934Z,7.53
2023-04-09T18:26:52.777Z,7.53
2023-04-09T18:29:21.514Z,7.47
2023-04-09T18:31:51.952Z,7.48
2023-04-09T18:34:22.353Z,7.40
2023-04-09T18:36:52.271Z,7.24
2023-04-09T18:39:21.527Z,7.31
2023-04-09T18:41:51.122Z,7.22
2023-04-09T18:44:22.016Z,7.28
2023-04-09T18:46:51.332Z,7.25
2023-04-09T18:49:19.569Z,7.18
2023-04-09T18:51:49.132Z,7.08
2023-04-09T18:54:18.425Z,6.95
2023-04-09T18:56:49.905Z,7.16
2023-04-09T18:59:18.757Z,7.10
2023-04-09T19:01:47.693Z,6.86
2023-04-09T19:04:20.074Z,6.95
2023-04-09T19:06:52.653Z,6.90
2023-04-09T19:09:21.701Z,6.87
2023-04-09T19:11:50.975Z,6.87
2023-04-09T19:14:22.340Z,6.82
2023-04-09T19:16:51.614Z,6.83
2023-04-09T19:19:20.560Z,6.82
2023-04-09T19:21:48.501Z,6.81
2023-04-09T19:24:17.728Z,6.76
2023-04-09T19:26:46.968Z,6.80
2023-04-09T19:29:17.736Z,6.75
2023-04-09T19:31:46.941Z,6.68
2023-04-09T19:34:16.769Z,6.64
2023-04-09T19:36:44.886Z,6.71
2023-04-09T19:39:15.320Z,6.74
2023-04-09T19:41:44.084Z,6.71
2023-04-09T19:44:12.377Z,6.69
2023-04-09T19:46:44.778Z,6.71
2023-04-09T19:49:14.790Z,6.62
2023-04-09T19:51:44.814Z,6.65
2023-04-09T19:54:16.513Z,6.67
2023-04-09T19:56:47.146Z,6.60
2023-04-09T19:59:15.678Z,6.70
2023-04-09T20:01:44.484Z,6.59
2023-04-09T20:04:14.491Z,6.80
2023-04-09T20:06:46.358Z,6.73
2023-04-09T20:09:16.134Z,6.66
2023-04-09T20:11:44.698Z,6.70
2023-04-09T20:14:13.451Z,6.73
2023-04-09T20:16:42.578Z,6.89
2023-04-09T20:19:25.502Z,6.82
2023-04-09T20:21:56.097Z,6.89
2023-04-09T20:24:29.063Z,6.84
2023-04-09T20:27:02.214Z,6.87
2023-04-09T20:29:32.346Z,6.81
2023-04-09T20:32:01.996Z,6.83
2023-04-09T20:34:32.543Z,6.87
2023-04-09T20:37:03.331Z,6.72
2023-04-09T20:39:49.308Z,6.88
2023-04-09T20:42:21.717Z,6.88
2023-04-09T20:44:49.109Z,6.88
2023-04-09T20:47:16.301Z,6.88
2023-04-09T20:49:43.864Z,6.86
2023-04-09T20:52:11.199Z,6.87
2023-04-09T20:54:44.835Z,6.84
2023-04-09T20:57:13.906Z,6.83
2023-04-09T20:59:41.805Z,6.85
2023-04-09T21:02:09.048Z,6.85
2023-04-09T21:04:36.360Z,6.79
2023-04-09T21:07:04.023Z,6.77
2023-04-09T21:09:31.764Z,6.80
2023-04-09T21:11:59.132Z,6.80
2023-04-09T21:14:26.362Z,6.81
2023-04-09T21:16:53.326Z,6.83
2023-04-09T21:19:21.136Z,6.84
2023-04-09T21:21:48.915Z,6.88
2023-04-09T21:24:17.022Z,6.90
2023-04-09T21:26:50.239Z,6.91
2023-04-09T21:29:20.027Z,6.93
2023-04-09T21:31:47.802Z,6.91
2023-04-09T21:34:14.733Z,6.89
2023-04-09T21:36:42.462Z,6.80
2023-04-09T21:39:09.399Z,6.75
2023-04-09T21:41:36.817Z,6.76
2023-04-09T21:44:08.796Z,6.74
2023-04-09T21:46:41.021Z,6.61
2023-04-09T21:49:08.297Z,6.77
2023-04-09T21:51:36.297Z,6.72
2023-04-09T21:54:09.279Z,6.65
2023-04-09T21:56:37.304Z,6.71
2023-04-09T21:59:05.459Z,6.75
2023-04-09T22:01:34.779Z,6.68
2023-04-09T22:04:02.422Z,6.80
2023-04-09T22:06:30.053Z,6.81
2023-04-09T22:08:58.660Z,6.83
2023-04-09T22:11:28.134Z,6.83
2023-04-09T22:13:58.602Z,6.80
2023-04-09T22:16:26.471Z,6.80
2023-04-09T22:18:54.859Z,6.80
2023-04-09T22:21:24.389Z,6.77
2023-04-09T22:23:51.309Z,6.76
2023-04-09T22:26:18.359Z,6.73
2023-04-09T22:28:45.573Z,6.71
2023-04-09T22:31:12.855Z,6.71
2023-04-09T22:33:39.861Z,6.71
2023-04-09T22:36:07.380Z,6.69
2023-04-09T22:38:34.838Z,6.69
2023-04-09T22:41:01.955Z,6.63
2023-04-09T22:43:28.870Z,6.67
2023-04-09T22:45:57.449Z,6.64
2023-04-09T22:48:24.379Z,6.62
2023-04-09T22:50:51.381Z,6.59
2023-04-09T22:53:19.574Z,6.57
2023-04-09T22:55:54.699Z,6.56
2023-04-09T22:58:21.702Z,6.57
2023-04-09T23:00:49.881Z,6.56
2023-04-09T23:03:17.591Z,6.56
2023-04-09T23:05:45.588Z,6.52
2023-04-09T23:08:13.168Z,6.49
2023-04-09T23:10:40.076Z,6.47
2023-04-09T23:13:07.035Z,6.37
2023-04-09T23:15:34.615Z,6.11
2023-04-09T23:18:01.554Z,6.23
2023-04-09T23:20:29.659Z,6.35
2023-04-09T23:22:56.584Z,6.41
2023-04-09T23:25:23.500Z,6.44
2023-04-09T23:27:50.536Z,6.45
2023-04-09T23:30:18.329Z,6.45
2023-04-09T23:32:45.661Z,6.48
2023-04-09T23:35:12.772Z,6.11
2023-04-09T23:37:41.335Z,6.48
2023-04-09T23:40:08.906Z,6.51
2023-04-09T23:42:36.128Z,6.53
2023-04-09T23:45:04.658Z,6.53
2023-04-09T23:47:33.863Z,6.56
2023-04-09T23:50:05.132Z,6.55
2023-04-09T23:52:37.376Z,6.49
2023-04-09T23:55:10.910Z,6.47
2023-04-09T23:57:39.800Z,6.45
